Time;durP1;ratioP1;P1;durP2;ratioP2;P2;SDS_P1;SDS_P2;PMS_P1;PMS_P2;Temp;Humidity;BMP_temperature;BMP_pressure;BME280_temperature;BME280_humidity;BME280_pressure;Samples;Min_cycle;Max_cycle;Signal;HPM_P1;HPM_P2
2022/11/21 00:00:25;;;;;;;;;;;19.00;65.90;;;;;;5022462;28;848;-70
2022/11/21 00:02:50;;;;;;;;;;;19.00;65.90;;;;;;5019458;28;976;-70
2022/11/21 00:05:16;;;;;;;;;;;19.00;65.90;;;;;;5040146;28;856;-70
2022/11/21 00:07:42;;;;;;;;;;;19.00;66.00;;;;;;5042910;28;1370;-70
2022/11/21 00:10:08;;;;;;;;;;;19.00;66.00;;;;;;5040347;28;1938;-70
2022/11/21 00:12:33;;;;;;;;;;;18.90;66.00;;;;;;5039615;28;935;-70
2022/11/21 00:14:59;;;;;;;;;;;19.00;66.00;;;;;;5041763;28;1007;-70
2022/11/21 00:17:24;;;;;;;;;;;18.90;65.90;;;;;;5041606;28;1205;-70
2022/11/21 00:19:50;;;;;;;;;;;19.00;66.10;;;;;;5036727;28;876;-70
2022/11/21 00:22:15;;;;;;;;;;;18.90;66.00;;;;;;5038982;28;892;-69
2022/11/21 00:24:41;;;;;;;;;;;18.90;66.00;;;;;;5036685;28;869;-69
2022/11/21 00:27:06;;;;;;;;;;;18.90;66.00;;;;;;5040446;28;1288;-68
2022/11/21 00:29:32;;;;;;;;;;;18.90;66.00;;;;;;5038575;28;1910;-68
2022/11/21 00:31:57;;;;;;;;;;;18.90;66.10;;;;;;5043426;28;855;-68
2022/11/21 00:34:23;;;;;;;;;;;18.90;66.10;;;;;;5039681;28;757;-68
2022/11/21 00:36:48;;;;;;;;;;;18.90;66.10;;;;;;5041827;28;1295;-68
2022/11/21 00:39:13;;;;;;;;;;;18.90;66.10;;;;;;5042104;28;961;-68
2022/11/21 00:41:39;;;;;;;;;;;18.90;66.10;;;;;;5037817;28;955;-68
2022/11/21 00:44:04;;;;;;;;;;;18.90;66.10;;;;;;5039056;28;875;-69
2022/11/21 00:46:30;;;;;;;;;;;18.90;66.20;;;;;;5037941;28;1209;-70
2022/11/21 00:48:55;;;;;;;;;;;18.90;66.10;;;;;;5036773;28;1945;-70
2022/11/21 00:51:21;;;;;;;;;;;18.90;66.10;;;;;;5038388;28;867;-69
2022/11/21 00:53:46;;;;;;;;;;;18.90;66.20;;;;;;5036992;28;927;-69
2022/11/21 00:56:12;;;;;;;;;;;18.90;66.20;;;;;;5036761;28;824;-68
2022/11/21 00:58:37;;;;;;;;;;;18.90;66.20;;;;;;5037396;28;1307;-68
2022/11/21 01:01:03;;;;;;;;;;;18.80;66.10;;;;;;5039375;28;833;-68
2022/11/21 01:03:28;;;;;;;;;;;18.80;66.10;;;;;;5038624;28;954;-68
2022/11/21 01:05:58;;;;;;;;;;;18.90;66.20;;;;;;5038840;28;1035;-68
2022/11/21 01:08:24;;;;;;;;;;;18.80;66.10;;;;;;5041554;28;1894;-69
2022/11/21 01:10:49;;;;;;;;;;;18.90;66.20;;;;;;5039520;28;828;-70
2022/11/21 01:13:15;;;;;;;;;;;18.80;66.20;;;;;;5035777;28;951;-70
2022/11/21 01:15:40;;;;;;;;;;;18.80;66.20;;;;;;5037651;28;1651;-70
2022/11/21 01:18:06;;;;;;;;;;;18.80;66.20;;;;;;5040271;28;1213;-69
2022/11/21 01:20:31;;;;;;;;;;;18.80;66.20;;;;;;5038729;28;895;-69
2022/11/21 01:22:57;;;;;;;;;;;18.80;66.20;;;;;;5038484;28;863;-69
2022/11/21 01:25:22;;;;;;;;;;;18.80;66.20;;;;;;5035044;28;820;-70
2022/11/21 01:27:47;;;;;;;;;;;18.80;66.30;;;;;;5034633;28;1281;-71
2022/11/21 01:30:13;;;;;;;;;;;18.80;66.30;;;;;;5039304;28;1913;-71
2022/11/21 01:32:39;;;;;;;;;;;18.80;66.30;;;;;;5039423;28;878;-70
2022/11/21 01:35:04;;;;;;;;;;;18.80;66.20;;;;;;5036839;28;1046;-70
2022/11/21 01:37:30;;;;;;;;;;;18.80;66.30;;;;;;5036941;28;1355;-70
2022/11/21 01:39:55;;;;;;;;;;;18.80;66.30;;;;;;5037232;28;1057;-71
2022/11/21 01:42:21;;;;;;;;;;;18.80;66.30;;;;;;5040025;28;802;-70
2022/11/21 01:44:50;;;;;;;;;;;18.80;66.30;;;;;;5039062;28;994;-69
2022/11/21 01:47:15;;;;;;;;;;;18.80;66.30;;;;;;5038569;28;1304;-68
2022/11/21 01:49:41;;;;;;;;;;;18.80;66.30;;;;;;5040727;28;1979;-69
2022/11/21 01:52:08;;;;;;;;;;;18.80;66.30;;;;;;5036479;28;943;-69
2022/11/21 01:54:34;;;;;;;;;;;18.80;66.30;;;;;;5022420;28;1081;-69
2022/11/21 01:57:07;;;;;;;;;;;18.80;66.30;;;;;;5038943;28;1266;-69
2022/11/21 01:59:34;;;;;;;;;;;18.80;66.40;;;;;;5021112;28;886;-69
2022/11/21 02:02:00;;;;;;;;;;;18.80;66.30;;;;;;5021450;28;911;-69
2022/11/21 02:04:27;;;;;;;;;;;18.80;66.30;;;;;;5020307;28;899;-69
2022/11/21 02:06:52;;;;;;;;;;;18.80;66.30;;;;;;5039589;28;1271;-69
2022/11/21 02:09:17;;;;;;;;;;;18.80;66.40;;;;;;5037257;28;1919;-69
2022/11/21 02:11:44;;;;;;;;;;;18.80;66.40;;;;;;5037362;28;974;-69
2022/11/21 02:14:10;;;;;;;;;;;18.80;66.40;;;;;;5022110;28;1474;-69
2022/11/21 02:16:35;;;;;;;;;;;18.80;66.40;;;;;;5036670;28;1272;-69
2022/11/21 02:19:01;;;;;;;;;;;18.80;66.50;;;;;;5038276;28;1599;-68
2022/11/21 02:21:38;;;;;;;;;;;18.80;66.40;;;;;;5039502;28;1678;-69
2022/11/21 02:24:11;;;;;;;;;;;18.80;66.40;;;;;;5039614;28;844;-69
2022/11/21 02:26:36;;;;;;;;;;;18.80;66.40;;;;;;5038780;28;1229;-68
2022/11/21 02:29:02;;;;;;;;;;;18.70;66.40;;;;;;5039368;28;1914;-68
2022/11/21 02:31:27;;;;;;;;;;;18.70;66.40;;;;;;5040507;28;792;-69
2022/11/21 02:33:53;;;;;;;;;;;18.80;66.50;;;;;;5035196;28;935;-69
2022/11/21 02:36:48;;;;;;;;;;;18.80;66.40;;;;;;5034933;28;837;-69
2022/11/21 02:39:15;;;;;;;;;;;18.80;66.50;;;;;;5021683;28;1323;-68
2022/11/21 02:41:45;;;;;;;;;;;18.80;66.50;;;;;;5040016;28;817;-68
2022/11/21 02:44:25;;;;;;;;;;;18.80;66.50;;;;;;5043140;28;879;-68
2022/11/21 02:46:50;;;;;;;;;;;18.80;66.50;;;;;;5039938;28;1253;-69
2022/11/21 02:49:41;;;;;;;;;;;18.70;66.40;;;;;;5024494;28;1955;-69
2022/11/21 02:52:06;;;;;;;;;;;18.80;66.50;;;;;;5043264;28;958;-69
2022/11/21 02:54:32;;;;;;;;;;;18.70;66.40;;;;;;5041865;28;881;-69
2022/11/21 02:56:57;;;;;;;;;;;18.70;66.50;;;;;;5038033;28;1787;-69
2022/11/21 02:59:23;;;;;;;;;;;18.70;66.50;;;;;;5040444;28;799;-69
2022/11/21 03:01:48;;;;;;;;;;;18.70;66.50;;;;;;5043108;28;891;-69
2022/11/21 03:04:14;;;;;;;;;;;18.70;66.50;;;;;;5037014;28;826;-69
2022/11/21 03:06:39;;;;;;;;;;;18.70;66.50;;;;;;5037227;28;1326;-68
2022/11/21 03:09:05;;;;;;;;;;;18.70;66.50;;;;;;5042291;28;1953;-68
2022/11/21 03:11:30;;;;;;;;;;;18.70;66.50;;;;;;5040908;28;847;-68
2022/11/21 03:13:56;;;;;;;;;;;18.70;66.50;;;;;;5045862;28;1181;-68
2022/11/21 03:16:21;;;;;;;;;;;18.70;66.50;;;;;;5038281;28;1395;-68
2022/11/21 03:18:47;;;;;;;;;;;18.70;66.50;;;;;;5039328;28;1307;-68
2022/11/21 03:21:12;;;;;;;;;;;18.70;66.50;;;;;;5027222;28;1298;-68
2022/11/21 03:23:38;;;;;;;;;;;18.70;66.50;;;;;;5042672;28;862;-68
2022/11/21 03:26:03;;;;;;;;;;;18.70;66.50;;;;;;5039442;28;850;-68
2022/11/21 03:28:29;;;;;;;;;;;18.70;66.50;;;;;;5032298;28;1229;-68
2022/11/21 03:30:54;;;;;;;;;;;18.70;66.60;;;;;;5043530;28;859;-68
2022/11/21 03:33:20;;;;;;;;;;;18.70;66.60;;;;;;5040181;28;1010;-68
2022/11/21 03:35:46;;;;;;;;;;;18.70;66.60;;;;;;5038186;28;796;-68
2022/11/21 03:38:11;;;;;;;;;;;18.70;66.60;;;;;;5037127;28;1205;-68
2022/11/21 03:40:37;;;;;;;;;;;18.70;66.60;;;;;;5040318;28;1070;-68
2022/11/21 03:43:03;;;;;;;;;;;18.70;66.60;;;;;;5040310;28;1136;-68
2022/11/21 03:45:29;;;;;;;;;;;18.70;66.60;;;;;;5024790;28;899;-69
2022/11/21 03:47:54;;;;;;;;;;;18.70;67.40;;;;;;5039145;28;1373;-68
2022/11/21 03:50:20;;;;;;;;;;;18.70;66.60;;;;;;5038876;28;1898;-68
2022/11/21 03:52:45;;;;;;;;;;;18.70;66.60;;;;;;5041888;28;910;-68
2022/11/21 03:55:11;;;;;;;;;;;18.70;66.60;;;;;;5039316;28;1065;-68
2022/11/21 03:57:37;;;;;;;;;;;18.70;66.60;;;;;;5037980;28;1276;-68
2022/11/21 04:00:03;;;;;;;;;;;18.70;66.70;;;;;;5031043;28;805;-68
2022/11/21 04:02:28;;;;;;;;;;;18.70;66.70;;;;;;5039793;28;848;-68
2022/11/21 04:04:54;;;;;;;;;;;18.70;66.60;;;;;;5042742;28;1046;-68
2022/11/21 04:07:19;;;;;;;;;;;18.70;66.70;;;;;;5039422;28;1228;-68
2022/11/21 04:09:45;;;;;;;;;;;18.60;66.60;;;;;;5043037;28;1902;-68
2022/11/21 04:12:10;;;;;;;;;;;18.70;66.70;;;;;;5041607;28;805;-68
2022/11/21 04:14:36;;;;;;;;;;;18.60;66.60;;;;;;5038858;28;1578;-68
2022/11/21 04:17:01;;;;;;;;;;;18.70;66.70;;;;;;5037955;28;1209;-67
2022/11/21 04:19:26;;;;;;;;;;;18.70;66.70;;;;;;5040407;28;934;-68
2022/11/21 04:21:52;;;;;;;;;;;18.70;66.70;;;;;;5039388;28;1002;-68
2022/11/21 04:24:17;;;;;;;;;;;18.70;66.70;;;;;;5041190;28;790;-68
2022/11/21 04:26:43;;;;;;;;;;;18.70;66.70;;;;;;5038943;28;1225;-69
2022/11/21 04:29:08;;;;;;;;;;;18.60;66.60;;;;;;5039771;28;1954;-68
2022/11/21 04:31:34;;;;;;;;;;;18.70;66.70;;;;;;5040217;28;847;-68
2022/11/21 04:33:59;;;;;;;;;;;18.70;66.70;;;;;;5038388;28;1014;-68
2022/11/21 04:36:25;;;;;;;;;;;18.60;66.70;;;;;;5039381;28;829;-68
2022/11/21 04:38:50;;;;;;;;;;;18.70;66.70;;;;;;5039489;28;1244;-68
2022/11/21 04:41:15;;;;;;;;;;;18.60;66.60;;;;;;5025150;28;1097;-68
2022/11/21 04:43:41;;;;;;;;;;;18.60;66.70;;;;;;5036721;28;868;-68
2022/11/21 04:46:06;;;;;;;;;;;18.60;66.70;;;;;;5040436;28;1002;-68
2022/11/21 04:48:32;;;;;;;;;;;18.60;66.60;;;;;;5037046;28;1280;-68
2022/11/21 04:50:57;;;;;;;;;;;18.60;66.70;;;;;;5037361;28;983;-68
2022/11/21 04:53:23;;;;;;;;;;;18.60;66.70;;;;;;5020476;28;977;-68
2022/11/21 04:55:48;;;;;;;;;;;18.60;66.70;;;;;;5019893;28;1238;-68
2022/11/21 04:58:14;;;;;;;;;;;18.60;66.70;;;;;;5039045;28;1233;-68
2022/11/21 05:00:39;;;;;;;;;;;18.60;66.70;;;;;;5039536;28;887;-69
2022/11/21 05:03:05;;;;;;;;;;;18.60;66.70;;;;;;5039875;28;864;-68
2022/11/21 05:05:30;;;;;;;;;;;18.60;66.70;;;;;;5041624;28;1003;-68
2022/11/21 05:07:56;;;;;;;;;;;18.60;66.70;;;;;;5019722;28;1209;-68
2022/11/21 05:10:21;;;;;;;;;;;18.60;66.70;;;;;;5037464;28;1894;-69
2022/11/21 05:15:31;;;;;;;;;;;18.60;66.60;;;;;;5046360;28;1483;-69
2022/11/21 05:17:59;;;;;;;;;;;18.70;66.60;;;;;;5042160;28;1237;-69
2022/11/21 05:20:25;;;;;;;;;;;18.70;66.60;;;;;;5035893;28;883;-69
2022/11/21 05:22:50;;;;;;;;;;;18.70;66.40;;;;;;5038222;28;907;-69
2022/11/21 05:25:16;;;;;;;;;;;18.70;66.30;;;;;;5037130;28;879;-70
2022/11/21 05:27:41;;;;;;;;;;;18.80;66.30;;;;;;5037403;28;1303;-69
2022/11/21 05:30:07;;;;;;;;;;;18.80;66.20;;;;;;5035636;28;1902;-69
2022/11/21 05:32:33;;;;;;;;;;;18.80;66.10;;;;;;5037570;28;860;-69
2022/11/21 05:34:58;;;;;;;;;;;18.80;66.00;;;;;;5042642;28;943;-69
2022/11/21 05:37:23;;;;;;;;;;;18.90;66.00;;;;;;5037234;28;1343;-69
2022/11/21 05:39:49;;;;;;;;;;;18.90;65.80;;;;;;5033945;28;879;-69
2022/11/21 05:42:14;;;;;;;;;;;18.90;65.70;;;;;;5034589;28;860;-69
2022/11/21 05:44:40;;;;;;;;;;;18.90;65.70;;;;;;5039208;28;1011;-69
2022/11/21 05:47:05;;;;;;;;;;;19.00;65.60;;;;;;5037625;28;1323;-69
2022/11/21 05:49:31;;;;;;;;;;;18.90;65.50;;;;;;5041465;28;1902;-68
2022/11/21 05:51:56;;;;;;;;;;;19.00;65.50;;;;;;5035273;28;860;-68
2022/11/21 05:54:22;;;;;;;;;;;19.00;65.50;;;;;;5034214;28;1912;-69
2022/11/21 05:56:47;;;;;;;;;;;19.00;65.40;;;;;;5036580;28;2110;-68
2022/11/21 05:59:13;;;;;;;;;;;19.00;65.30;;;;;;5039352;28;1392;-69
2022/11/21 06:04:22;;;;;;;;;;;19.00;65.30;;;;;;5035605;28;812;-68
2022/11/21 06:06:48;;;;;;;;;;;19.00;65.30;;;;;;5036370;28;1284;-67
2022/11/21 06:09:13;;;;;;;;;;;19.00;65.20;;;;;;5034168;28;1903;-67
2022/11/21 06:11:39;;;;;;;;;;;19.00;65.20;;;;;;5033965;28;1479;-67
2022/11/21 06:14:04;;;;;;;;;;;19.00;65.20;;;;;;5039677;28;1031;-67
2022/11/21 06:16:30;;;;;;;;;;;19.00;65.20;;;;;;5037433;28;864;-67
2022/11/21 06:18:55;;;;;;;;;;;19.00;65.20;;;;;;5041344;28;1241;-68
2022/11/21 06:21:21;;;;;;;;;;;19.00;65.20;;;;;;5043012;28;1250;-68
2022/11/21 06:23:48;;;;;;;;;;;19.00;65.20;;;;;;5041081;28;958;-69
2022/11/21 06:26:15;;;;;;;;;;;19.00;65.20;;;;;;5042022;28;855;-71
2022/11/21 06:28:40;;;;;;;;;;;19.00;65.20;;;;;;5040910;28;1975;-70
2022/11/21 06:31:07;;;;;;;;;;;19.00;65.20;;;;;;5032813;28;1261;-70
2022/11/21 06:33:33;;;;;;;;;;;19.00;65.20;;;;;;5039630;28;914;-69
2022/11/21 06:36:14;;;;;;;;;;;19.00;65.30;;;;;;5031633;28;1082;-68
2022/11/21 06:38:40;;;;;;;;;;;19.00;65.30;;;;;;5040999;28;1311;-69
2022/11/21 06:41:15;;;;;;;;;;;19.00;65.30;;;;;;5044653;28;942;-69
2022/11/21 06:43:40;;;;;;;;;;;19.00;65.30;;;;;;5044531;28;889;-69
2022/11/21 06:46:06;;;;;;;;;;;19.00;65.30;;;;;;5042645;28;812;-67
2022/11/21 06:48:31;;;;;;;;;;;19.00;65.40;;;;;;5039965;28;1197;-67
2022/11/21 06:50:57;;;;;;;;;;;19.00;65.40;;;;;;5026772;28;1926;-67
2022/11/21 06:53:23;;;;;;;;;;;18.90;65.30;;;;;;5029661;28;869;-67
2022/11/21 06:55:48;;;;;;;;;;;19.00;65.40;;;;;;5042558;28;903;-68
2022/11/21 06:58:14;;;;;;;;;;;18.90;65.40;;;;;;5041661;28;1268;-68
2022/11/21 07:00:39;;;;;;;;;;;18.90;66.20;;;;;;5039801;28;805;-72
2022/11/21 07:03:05;;;;;;;;;;;18.90;65.50;;;;;;5042837;28;1245;-68
2022/11/21 07:05:30;;;;;;;;;;;18.90;65.50;;;;;;5040499;28;809;-67
2022/11/21 07:07:59;;;;;;;;;;;18.90;65.50;;;;;;5041152;28;1264;-67
2022/11/21 07:10:24;;;;;;;;;;;18.90;65.50;;;;;;5036094;28;1899;-66
2022/11/21 07:15:34;;;;;;;;;;;18.90;65.60;;;;;;5041079;28;1111;-70
2022/11/21 07:18:00;;;;;;;;;;;18.90;65.60;;;;;;5039182;28;1258;-70
2022/11/21 07:20:26;;;;;;;;;;;18.90;65.60;;;;;;5042864;28;935;-71
2022/11/21 07:22:54;;;;;;;;;;;18.90;65.70;;;;;;5040100;28;1510;-71
2022/11/21 07:25:20;;;;;;;;;;;18.80;65.70;;;;;;5018337;28;2029;-71
2022/11/21 07:27:45;;;;;;;;;;;18.80;65.70;;;;;;5034426;28;1225;-71
2022/11/21 07:30:11;;;;;;;;;;;18.80;65.70;;;;;;5038682;28;1969;-69
2022/11/21 07:32:37;;;;;;;;;;;18.80;65.80;;;;;;5039584;28;942;-69
2022/11/21 07:35:02;;;;;;;;;;;18.80;65.80;;;;;;5040393;28;1010;-70
2022/11/21 07:37:28;;;;;;;;;;;18.80;65.80;;;;;;5040555;28;1217;-67
2022/11/21 07:39:53;;;;;;;;;;;18.80;65.80;;;;;;5040252;28;817;-67
2022/11/21 07:42:19;;;;;;;;;;;18.80;65.80;;;;;;5042319;28;843;-67
2022/11/21 07:44:44;;;;;;;;;;;18.80;65.90;;;;;;5037056;28;1038;-69
2022/11/21 07:47:10;;;;;;;;;;;18.80;65.90;;;;;;5039784;28;1257;-68
2022/11/21 07:49:35;;;;;;;;;;;18.80;65.90;;;;;;5044094;28;1922;-69
2022/11/21 07:52:01;;;;;;;;;;;18.80;65.80;;;;;;5043269;28;967;-68
2022/11/21 07:54:26;;;;;;;;;;;18.80;65.80;;;;;;5039568;28;852;-68
2022/11/21 07:56:52;;;;;;;;;;;18.80;65.80;;;;;;5040649;28;1364;-67
2022/11/21 07:59:18;;;;;;;;;;;18.80;65.80;;;;;;5044356;28;1419;-67
2022/11/21 08:01:43;;;;;;;;;;;18.80;65.70;;;;;;5044161;28;1627;-66
2022/11/21 08:04:09;;;;;;;;;;;18.80;65.70;;;;;;5042202;28;776;-66
2022/11/21 08:06:34;;;;;;;;;;;18.90;65.60;;;;;;5043827;28;1272;-66
2022/11/21 08:09:00;;;;;;;;;;;18.90;65.60;;;;;;5037773;28;1902;-66
2022/11/21 08:11:25;;;;;;;;;;;18.90;65.60;;;;;;5040874;28;943;-67
2022/11/21 08:13:51;;;;;;;;;;;18.90;65.60;;;;;;5034701;28;1466;-66
2022/11/21 08:16:16;;;;;;;;;;;18.90;65.50;;;;;;5038222;28;851;-66
2022/11/21 08:18:41;;;;;;;;;;;18.90;65.50;;;;;;5040411;28;1284;-66
2022/11/21 08:21:07;;;;;;;;;;;18.90;65.50;;;;;;5039385;28;1002;-67
2022/11/21 08:23:32;;;;;;;;;;;18.90;65.50;;;;;;5043225;28;1009;-68
2022/11/21 08:25:58;;;;;;;;;;;18.90;65.50;;;;;;5040769;28;1382;-67
2022/11/21 08:28:23;;;;;;;;;;;18.90;65.40;;;;;;5039307;28;1337;-67
2022/11/21 08:30:49;;;;;;;;;;;18.90;65.70;;;;;;5039861;28;1938;-67
2022/11/21 08:33:14;;;;;;;;;;;19.00;66.20;;;;;;5023259;28;2292;-68
2022/11/21 08:35:41;;;;;;;;;;;19.00;65.90;;;;;;5037041;28;1228;-68
2022/11/21 08:38:06;;;;;;;;;;;19.00;65.40;;;;;;5042377;28;1363;-68
2022/11/21 08:40:32;;;;;;;;;;;19.00;65.30;;;;;;5038339;28;887;-68
2022/11/21 08:43:01;;;;;;;;;;;19.10;65.30;;;;;;5039075;28;828;-68
2022/11/21 08:45:27;;;;;;;;;;;19.00;65.10;;;;;;5038722;28;2171;-68
2022/11/21 08:47:53;;;;;;;;;;;19.00;65.10;;;;;;5020887;28;1444;-67
2022/11/21 08:50:18;;;;;;;;;;;19.00;65.20;;;;;;5024708;28;1907;-67
2022/11/21 08:52:44;;;;;;;;;;;19.10;65.20;;;;;;5039295;28;1371;-68
2022/11/21 08:55:09;;;;;;;;;;;19.10;65.20;;;;;;5039433;28;1424;-66
2022/11/21 08:57:38;;;;;;;;;;;19.10;65.20;;;;;;5036886;28;1292;-68
2022/11/21 09:00:04;;;;;;;;;;;19.10;65.20;;;;;;5039382;28;1235;-68
2022/11/21 09:02:29;;;;;;;;;;;19.10;65.10;;;;;;5021984;28;870;-68
2022/11/21 09:04:55;;;;;;;;;;;19.10;65.50;;;;;;5042859;28;1010;-68
2022/11/21 09:07:20;;;;;;;;;;;19.10;65.20;;;;;;5023852;28;1269;-68
2022/11/21 09:09:45;;;;;;;;;;;19.10;65.10;;;;;;5038703;28;1898;-67
2022/11/21 09:12:11;;;;;;;;;;;19.10;65.10;;;;;;5040975;28;879;-68
2022/11/21 09:20:05;;;;;;;;;;;19.10;65.10;;;;;;5040325;28;1390;-68
2022/11/21 09:22:30;;;;;;;;;;;19.10;65.00;;;;;;5042046;28;1245;-68
2022/11/21 09:24:56;;;;;;;;;;;19.10;65.00;;;;;;5021597;28;926;-67
2022/11/21 09:27:21;;;;;;;;;;;19.10;65.00;;;;;;5033307;28;1241;-67
2022/11/21 09:29:46;;;;;;;;;;;19.10;65.00;;;;;;5029912;28;1902;-67
2022/11/21 09:32:12;;;;;;;;;;;19.10;65.00;;;;;;5036087;28;865;-68
2022/11/21 09:34:37;;;;;;;;;;;19.10;64.90;;;;;;5036996;28;1028;-67
2022/11/21 09:37:03;;;;;;;;;;;19.10;65.00;;;;;;5035745;28;1371;-67
2022/11/21 09:39:28;;;;;;;;;;;19.10;65.00;;;;;;5041560;28;884;-68
2022/11/21 09:42:17;;;;;;;;;;;19.10;65.00;;;;;;5038695;28;1010;-67
2022/11/21 09:45:01;;;;;;;;;;;19.10;65.00;;;;;;5020459;28;794;-67
2022/11/21 09:47:37;;;;;;;;;;;19.10;65.00;;;;;;5038501;28;1356;-67
2022/11/21 09:50:05;;;;;;;;;;;19.10;64.90;;;;;;5036573;28;1966;-67
2022/11/21 09:52:38;;;;;;;;;;;19.10;64.90;;;;;;5038880;28;834;-67
2022/11/21 09:55:05;;;;;;;;;;;19.10;64.90;;;;;;5036959;28;907;-68
2022/11/21 09:57:31;;;;;;;;;;;19.10;64.90;;;;;;5037451;28;1259;-67
2022/11/21 09:59:56;;;;;;;;;;;19.10;64.90;;;;;;5023517;28;1938;-67
2022/11/21 10:02:22;;;;;;;;;;;19.10;64.80;;;;;;5039136;28;1261;-67
2022/11/21 10:04:47;;;;;;;;;;;19.10;64.80;;;;;;5038033;28;1284;-68
2022/11/21 10:07:19;;;;;;;;;;;19.10;64.80;;;;;;5034462;28;1312;-68
2022/11/21 10:09:45;;;;;;;;;;;19.10;64.90;;;;;;5037238;28;1954;-68
2022/11/21 10:12:38;;;;;;;;;;;19.10;64.80;;;;;;5037800;28;871;-68
2022/11/21 10:15:19;;;;;;;;;;;19.10;64.80;;;;;;5039592;28;1460;-67
2022/11/21 10:18:03;;;;;;;;;;;19.10;64.80;;;;;;5037640;28;1576;-68
2022/11/21 10:20:47;;;;;;;;;;;19.10;64.80;;;;;;5036200;28;963;-67
2022/11/21 10:23:21;;;;;;;;;;;19.10;64.80;;;;;;5040283;28;813;-67
2022/11/21 10:25:55;;;;;;;;;;;19.10;64.80;;;;;;5036740;28;858;-68
2022/11/21 10:28:27;;;;;;;;;;;19.10;64.80;;;;;;5021891;28;1272;-68
2022/11/21 10:30:52;;;;;;;;;;;19.10;64.90;;;;;;5022722;28;1910;-67
2022/11/21 10:33:25;;;;;;;;;;;19.10;64.90;;;;;;5037418;28;951;-67
2022/11/21 10:35:51;;;;;;;;;;;19.10;64.90;;;;;;5017000;28;840;-68
2022/11/21 10:38:19;;;;;;;;;;;19.10;64.90;;;;;;5035683;28;1277;-68
2022/11/21 10:41:11;;;;;;;;;;;19.10;65.00;;;;;;5034864;28;1048;-68
2022/11/21 10:46:25;;;;;;;;;;;19.00;65.00;;;;;;5035788;28;854;-67
2022/11/21 10:48:54;;;;;;;;;;;19.00;65.00;;;;;;5039880;28;1955;-67
2022/11/21 10:51:23;;;;;;;;;;;19.00;65.10;;;;;;5035939;28;930;-66
2022/11/21 10:56:45;;;;;;;;;;;19.00;65.10;;;;;;5035360;28;1253;-68
2022/11/21 10:59:11;;;;;;;;;;;19.00;65.20;;;;;;5039615;28;1370;-68
2022/11/21 11:01:37;;;;;;;;;;;19.00;65.20;;;;;;5037317;28;905;-68
2022/11/21 11:04:08;;;;;;;;;;;19.00;65.20;;;;;;5040517;28;844;-67
2022/11/21 11:06:34;;;;;;;;;;;19.00;65.30;;;;;;5036324;28;1522;-69
2022/11/21 11:09:00;;;;;;;;;;;19.00;65.30;;;;;;5026621;28;1902;-67
2022/11/21 11:11:25;;;;;;;;;;;19.00;65.30;;;;;;5041519;28;839;-69
2022/11/21 11:14:11;;;;;;;;;;;19.00;65.40;;;;;;5038335;28;1546;-69
2022/11/21 11:16:36;;;;;;;;;;;19.00;65.30;;;;;;5039799;28;1367;-67
2022/11/21 11:19:08;;;;;;;;;;;19.00;65.30;;;;;;5026245;28;1280;-68
2022/11/21 11:21:40;;;;;;;;;;;19.00;65.40;;;;;;5039717;28;919;-68
2022/11/21 11:24:26;;;;;;;;;;;19.00;65.40;;;;;;5039607;28;876;-69
2022/11/21 11:26:54;;;;;;;;;;;19.00;65.40;;;;;;5037349;28;1336;-68
2022/11/21 11:29:19;;;;;;;;;;;18.90;66.10;;;;;;5025395;28;1977;-69
2022/11/21 11:31:54;;;;;;;;;;;19.00;65.40;;;;;;5040778;28;892;-68
2022/11/21 11:34:19;;;;;;;;;;;18.90;65.40;;;;;;5043622;28;823;-68
2022/11/21 11:36:49;;;;;;;;;;;18.90;65.40;;;;;;5040789;28;1264;-68
2022/11/21 11:39:33;;;;;;;;;;;18.90;65.40;;;;;;5036584;28;874;-68
2022/11/21 11:47:54;;;;;;;;;;;18.90;65.40;;;;;;5026031;28;1308;-69
2022/11/21 11:50:23;;;;;;;;;;;18.90;65.50;;;;;;5040879;28;1959;-69
2022/11/21 11:53:08;;;;;;;;;;;18.90;65.60;;;;;;5041874;28;907;-69
2022/11/21 11:55:39;;;;;;;;;;;18.90;65.50;;;;;;5039389;28;931;-66
2022/11/21 11:58:06;;;;;;;;;;;18.90;65.60;;;;;;5042386;28;1359;-68
2022/11/21 12:00:34;;;;;;;;;;;18.80;65.60;;;;;;5031038;28;890;-69
2022/11/21 12:03:02;;;;;;;;;;;18.80;65.60;;;;;;5024779;28;923;-69
2022/11/21 12:05:29;;;;;;;;;;;18.90;65.60;;;;;;5040763;28;868;-66
2022/11/21 12:08:05;;;;;;;;;;;18.80;65.60;;;;;;5037648;28;1414;-66
2022/11/21 12:12:05;;;;;;;;;;;18.90;65.50;;;;;;5037759;28;1923;-66
2022/11/21 12:13:28;;;;;;;;;;;18.90;59.20;;;;;;5047089;28;1501;-66
2022/11/21 12:15:54;;;;;;;;;;;18.90;60.30;;;;;;5041413;28;884;-66
2022/11/21 12:18:19;;;;;;;;;;;18.80;59.10;;;;;;5037512;28;1347;-66
2022/11/21 12:21:03;;;;;;;;;;;18.80;56.20;;;;;;5021671;28;1483;-66
2022/11/21 12:23:41;;;;;;;;;;;18.80;54.80;;;;;;5039591;28;874;-68
2022/11/21 12:26:18;;;;;;;;;;;18.90;56.10;;;;;;5037959;28;932;-68
2022/11/21 12:28:50;;;;;;;;;;;18.80;54.80;;;;;;5038702;28;1239;-68
2022/11/21 12:31:21;;;;;;;;;;;18.80;54.70;;;;;;5037229;28;1898;-68
2022/11/21 12:33:51;;;;;;;;;;;18.70;54.80;;;;;;5043380;28;855;-68
2022/11/21 12:36:20;;;;;;;;;;;18.70;55.00;;;;;;5036948;28;911;-68
2022/11/21 12:39:00;;;;;;;;;;;18.70;55.20;;;;;;5038401;28;1276;-68
2022/11/21 12:44:30;;;;;;;;;;;18.60;56.00;;;;;;5032173;28;787;-68
2022/11/21 12:46:56;;;;;;;;;;;18.60;56.50;;;;;;5040164;28;1284;-68
2022/11/21 12:55:31;;;;;;;;;;;18.60;57.70;;;;;;5040675;28;1078;-68
2022/11/21 12:58:06;;;;;;;;;;;18.60;58.10;;;;;;5037529;28;1224;-69
2022/11/21 13:00:43;;;;;;;;;;;18.60;58.30;;;;;;5038972;28;812;-67
2022/11/21 13:03:18;;;;;;;;;;;18.50;58.50;;;;;;5038104;28;883;-69
2022/11/21 13:05:44;;;;;;;;;;;18.50;58.70;;;;;;5021334;28;797;-69
2022/11/21 13:08:17;;;;;;;;;;;18.50;58.90;;;;;;5037924;28;1347;-68
2022/11/21 13:10:49;;;;;;;;;;;18.50;59.00;;;;;;5041162;28;1902;-68
2022/11/21 13:13:23;;;;;;;;;;;18.50;59.20;;;;;;5039682;28;1140;-68
2022/11/21 13:15:51;;;;;;;;;;;18.50;59.40;;;;;;5039223;28;835;-68
2022/11/21 13:18:17;;;;;;;;;;;18.50;59.50;;;;;;5023394;28;1332;-68
2022/11/21 13:20:46;;;;;;;;;;;18.50;59.60;;;;;;5039063;28;884;-68
2022/11/21 13:23:30;;;;;;;;;;;18.60;59.80;;;;;;5038248;28;896;-68
2022/11/21 13:25:56;;;;;;;;;;;18.60;59.80;;;;;;5036090;28;935;-68
2022/11/21 13:28:22;;;;;;;;;;;18.50;59.90;;;;;;5036031;28;1312;-69
2022/11/21 13:30:51;;;;;;;;;;;18.50;60.00;;;;;;5027158;28;1967;-68
2022/11/21 13:33:34;;;;;;;;;;;18.50;60.10;;;;;;5037756;28;935;-68
2022/11/21 13:36:00;;;;;;;;;;;18.50;60.20;;;;;;5039059;28;953;-68
2022/11/21 13:38:26;;;;;;;;;;;18.50;60.30;;;;;;5039883;28;1343;-68
2022/11/21 13:43:36;;;;;;;;;;;18.50;60.50;;;;;;5039254;28;765;-68
2022/11/21 13:46:01;;;;;;;;;;;18.50;60.70;;;;;;5038381;28;900;-66
2022/11/21 13:48:27;;;;;;;;;;;18.50;60.70;;;;;;5034896;28;1252;-68
2022/11/21 13:51:11;;;;;;;;;;;18.50;60.90;;;;;;5033911;28;1905;-69
2022/11/21 13:53:55;;;;;;;;;;;18.50;61.00;;;;;;5036611;28;1312;-67
2022/11/21 13:56:27;;;;;;;;;;;18.50;61.10;;;;;;5034932;28;1439;-67
2022/11/21 13:59:03;;;;;;;;;;;18.50;61.10;;;;;;5033376;28;1556;-68
2022/11/21 14:01:31;;;;;;;;;;;18.50;61.20;;;;;;5020238;28;1093;-68
2022/11/21 14:04:21;;;;;;;;;;;18.50;61.30;;;;;;5039288;28;856;-69
2022/11/21 14:06:47;;;;;;;;;;;18.50;61.40;;;;;;5032448;28;1300;-70
2022/11/21 14:09:12;;;;;;;;;;;18.50;61.40;;;;;;5034955;28;1988;-68
2022/11/21 14:11:47;;;;;;;;;;;18.60;61.50;;;;;;5026139;28;4217;-69
2022/11/21 14:14:22;;;;;;;;;;;18.60;61.50;;;;;;5040362;28;1285;-69
2022/11/21 14:16:47;;;;;;;;;;;18.60;61.50;;;;;;5034225;28;1371;-69
2022/11/21 14:19:13;;;;;;;;;;;18.60;61.60;;;;;;5037803;28;967;-69
2022/11/21 14:21:39;;;;;;;;;;;18.60;61.50;;;;;;5024668;28;1290;-69
2022/11/21 14:24:12;;;;;;;;;;;18.70;61.50;;;;;;5020326;28;1119;-68
2022/11/21 14:26:47;;;;;;;;;;;18.70;61.50;;;;;;5034511;28;1869;-68
2022/11/21 14:29:16;;;;;;;;;;;18.70;61.40;;;;;;5020057;28;1969;-69
2022/11/21 14:31:45;;;;;;;;;;;18.70;62.10;;;;;;5037528;28;956;-69
2022/11/21 14:34:11;;;;;;;;;;;18.70;61.40;;;;;;5036032;28;1392;-68
2022/11/21 14:36:36;;;;;;;;;;;18.80;61.40;;;;;;5035885;28;1285;-68
2022/11/21 14:39:05;;;;;;;;;;;18.80;61.40;;;;;;5041384;28;876;-68
2022/11/21 14:41:34;;;;;;;;;;;18.80;61.40;;;;;;5041977;28;915;-67
2022/11/21 14:44:00;;;;;;;;;;;18.80;61.40;;;;;;5024878;28;1321;-68
2022/11/21 14:46:30;;;;;;;;;;;18.80;61.40;;;;;;5039084;28;890;-68
2022/11/21 14:48:58;;;;;;;;;;;18.80;61.40;;;;;;5025937;28;1209;-68
2022/11/21 14:51:24;;;;;;;;;;;18.80;62.10;;;;;;5029246;28;994;-68
2022/11/21 14:53:50;;;;;;;;;;;18.80;61.30;;;;;;5041891;28;1042;-68
2022/11/21 14:56:22;;;;;;;;;;;18.90;61.40;;;;;;5024339;28;895;-69
2022/11/21 14:58:47;;;;;;;;;;;18.80;61.40;;;;;;5036105;28;1268;-69
2022/11/21 15:01:20;;;;;;;;;;;18.90;61.40;;;;;;5039631;28;820;-68
2022/11/21 15:03:55;;;;;;;;;;;18.90;61.30;;;;;;5024046;28;903;-68
2022/11/21 15:06:21;;;;;;;;;;;18.90;61.30;;;;;;5009002;28;1304;-68
2022/11/21 15:08:46;;;;;;;;;;;18.90;61.30;;;;;;5020330;28;1272;-68
2022/11/21 15:11:12;;;;;;;;;;;18.90;61.40;;;;;;5027149;28;1894;-68
2022/11/21 15:13:37;;;;;;;;;;;18.90;61.40;;;;;;5033833;28;1581;-69
2022/11/21 15:16:03;;;;;;;;;;;18.90;61.30;;;;;;5039911;28;954;-69